Time;durP1;ratioP1;P1;durP2;ratioP2;P2;SDS_P1;SDS_P2;PMS_P1;PMS_P2;Temp;Humidity;BMP_temperature;BMP_pressure;BME280_temperature;BME280_humidity;BME280_pressure;Samples;Min_cycle;Max_cycle;Signal;HPM_P1;HPM_P2
2021/08/31 00:00:05;;;;;;;15.25;12.30;;;21.90;87.70;;;;;;5014115;28;20061;-63
2021/08/31 00:02:31;;;;;;;15.70;12.57;;;21.90;88.00;;;;;;5012796;28;20041;-63
2021/08/31 00:04:58;;;;;;;14.35;11.60;;;21.90;87.70;;;;;;5014755;28;20100;-62
2021/08/31 00:07:24;;;;;;;14.05;11.90;;;21.90;87.80;;;;;;5014857;28;20072;-63
2021/08/31 00:09:50;;;;;;;14.15;11.65;;;21.90;87.80;;;;;;5011710;28;20065;-62
2021/08/31 00:12:15;;;;;;;16.17;12.55;;;21.90;87.80;;;;;;5013124;28;20021;-63
2021/08/31 00:14:41;;;;;;;18.05;13.05;;;21.90;87.80;;;;;;5013282;28;20030;-63
2021/08/31 00:17:07;;;;;;;18.48;12.10;;;21.90;87.80;;;;;;5013963;28;20022;-62
2021/08/31 00:19:32;;;;;;;13.43;12.02;;;21.80;87.70;;;;;;5013836;28;20110;-63
2021/08/31 00:21:58;;;;;;;12.75;11.35;;;21.80;87.80;;;;;;5014690;28;20037;-62
2021/08/31 00:24:24;;;;;;;14.15;12.00;;;21.90;88.10;;;;;;5014481;28;20025;-63
2021/08/31 00:26:49;;;;;;;15.90;12.93;;;21.90;88.00;;;;;;5010399;28;20058;-62
2021/08/31 00:29:15;;;;;;;16.45;12.20;;;21.80;87.90;;;;;;5009537;28;20033;-62
2021/08/31 00:31:42;;;;;;;14.48;11.63;;;21.80;87.90;;;;;;4993671;28;20514;-62
2021/08/31 00:34:08;;;;;;;15.90;13.77;;;21.80;88.00;;;;;;5020760;28;20029;-62
2021/08/31 00:36:33;;;;;;;16.20;13.88;;;21.80;88.00;;;;;;5024859;28;20029;-63
2021/08/31 00:38:59;;;;;;;16.15;13.52;;;21.80;88.20;;;;;;5013040;28;20112;-62
2021/08/31 00:41:26;;;;;;;18.73;14.55;;;21.80;87.90;;;;;;5014092;28;20030;-62
2021/08/31 00:43:52;;;;;;;15.32;13.02;;;21.80;88.10;;;;;;5012149;28;20044;-62
2021/08/31 00:46:20;;;;;;;16.10;13.32;;;21.80;88.00;;;;;;5012674;28;20022;-62
2021/08/31 00:48:46;;;;;;;17.65;13.95;;;21.80;88.00;;;;;;5013001;28;20520;-62
2021/08/31 00:51:13;;;;;;;20.83;14.57;;;21.80;88.10;;;;;;5013238;28;20029;-62
2021/08/31 00:53:40;;;;;;;20.17;15.43;;;21.80;88.10;;;;;;5013133;28;20036;-62
2021/08/31 00:56:11;;;;;;;17.60;14.20;;;21.80;88.10;;;;;;5012086;28;20029;-64
2021/08/31 00:58:40;;;;;;;17.42;14.57;;;21.80;88.20;;;;;;5013979;28;20024;-63
2021/08/31 01:01:06;;;;;;;18.20;14.25;;;21.80;88.10;;;;;;5011840;28;20038;-63
2021/08/31 01:03:32;;;;;;;17.90;14.68;;;21.80;88.30;;;;;;5013116;28;20030;-63
2021/08/31 01:06:02;;;;;;;19.25;15.18;;;21.80;88.20;;;;;;5012069;28;20060;-63
2021/08/31 01:08:29;;;;;;;18.83;15.73;;;21.80;88.20;;;;;;5013398;28;20037;-63
2021/08/31 01:10:58;;;;;;;18.88;15.60;;;21.80;88.00;;;;;;5013152;28;20037;-63
2021/08/31 01:13:24;;;;;;;19.65;16.95;;;21.80;88.20;;;;;;5014008;28;20033;-63
2021/08/31 01:15:50;;;;;;;19.02;15.45;;;21.80;87.80;;;;;;5011857;28;20466;-63
2021/08/31 01:18:21;;;;;;;16.58;13.93;;;21.80;88.00;;;;;;5012080;28;20072;-63
2021/08/31 01:20:55;;;;;;;19.50;15.35;;;21.80;88.00;;;;;;5012596;28;20076;-63
2021/08/31 01:23:21;;;;;;;18.80;14.73;;;21.80;88.10;;;;;;5012191;28;20026;-63
2021/08/31 01:25:47;;;;;;;16.58;13.93;;;21.80;88.20;;;;;;5011338;28;20026;-63
2021/08/31 01:28:22;;;;;;;19.02;15.30;;;21.80;88.20;;;;;;4993491;28;20022;-63
2021/08/31 01:30:49;;;;;;;19.20;15.55;;;21.80;88.10;;;;;;4994307;28;20529;-63
2021/08/31 01:33:14;;;;;;;17.15;14.70;;;21.80;88.20;;;;;;5017457;28;20022;-63
2021/08/31 01:35:40;;;;;;;19.77;16.60;;;21.80;88.30;;;;;;5013562;28;20551;-63
2021/08/31 01:38:06;;;;;;;21.70;16.65;;;21.80;88.20;;;;;;5012660;28;20113;-63
2021/08/31 01:40:32;;;;;;;18.55;14.90;;;21.80;88.30;;;;;;5011975;28;20638;-63
2021/08/31 01:42:58;;;;;;;18.40;15.13;;;21.80;88.20;;;;;;5012618;28;20033;-63
2021/08/31 01:45:24;;;;;;;19.63;16.13;;;21.80;88.10;;;;;;5012835;28;20033;-63
2021/08/31 01:47:49;;;;;;;20.55;16.77;;;21.80;88.10;;;;;;5012230;28;20029;-63
2021/08/31 01:50:15;;;;;;;18.20;15.40;;;21.80;88.10;;;;;;4999400;28;20031;-63
2021/08/31 01:52:41;;;;;;;21.83;16.73;;;21.70;88.30;;;;;;5009681;28;20498;-63
2021/08/31 01:55:07;;;;;;;18.60;15.35;;;21.70;88.20;;;;;;5012298;28;20125;-63
2021/08/31 01:57:33;;;;;;;19.65;15.60;;;21.70;88.30;;;;;;5011329;28;20369;-63
2021/08/31 01:59:59;;;;;;;20.02;15.10;;;21.70;88.30;;;;;;5006472;28;20466;-63
2021/08/31 02:02:25;;;;;;;23.08;15.55;;;21.70;88.30;;;;;;5012877;28;20080;-62
2021/08/31 02:04:50;;;;;;;20.38;15.40;;;21.70;88.40;;;;;;5012471;28;20542;-63
2021/08/31 02:07:16;;;;;;;22.17;16.38;;;21.70;88.50;;;;;;5012631;28;20478;-62
2021/08/31 02:09:41;;;;;;;19.50;13.90;;;21.70;88.50;;;;;;5011589;28;20454;-62
2021/08/31 02:12:08;;;;;;;19.20;14.05;;;21.60;88.30;;;;;;5012236;28;20026;-62
2021/08/31 02:14:33;;;;;;;19.40;14.30;;;21.60;88.20;;;;;;5012548;28;20029;-62
2021/08/31 02:16:59;;;;;;;19.67;14.43;;;21.60;88.30;;;;;;5012213;28;20355;-62
2021/08/31 02:19:25;;;;;;;18.50;13.75;;;21.60;88.40;;;;;;5011529;28;20034;-62
2021/08/31 02:21:50;;;;;;;20.13;13.15;;;21.50;88.40;;;;;;5012939;28;20052;-63
2021/08/31 02:24:16;;;;;;;16.95;12.57;;;21.50;88.60;;;;;;5012512;28;20385;-62
2021/08/31 02:26:42;;;;;;;17.70;13.05;;;21.50;88.60;;;;;;5006124;28;20034;-62
2021/08/31 02:29:07;;;;;;;19.70;13.85;;;21.50;88.50;;;;;;5003493;28;20026;-62
2021/08/31 02:31:33;;;;;;;20.02;13.68;;;21.50;88.30;;;;;;5012041;28;20049;-62
2021/08/31 02:33:58;;;;;;;17.13;12.40;;;21.50;88.20;;;;;;5026733;28;20029;-62
2021/08/31 02:36:24;;;;;;;18.45;13.73;;;21.50;88.20;;;;;;5016059;28;20032;-62
2021/08/31 02:38:50;;;;;;;19.55;12.77;;;21.50;88.20;;;;;;5016180;28;20117;-62
2021/08/31 02:41:16;;;;;;;18.98;12.85;;;21.50;88.10;;;;;;5009824;28;20109;-62
2021/08/31 02:43:41;;;;;;;16.42;12.32;;;21.40;88.00;;;;;;4997106;28;20038;-62
2021/08/31 02:46:07;;;;;;;21.13;13.80;;;21.40;88.20;;;;;;4998666;28;20031;-62
2021/08/31 02:48:33;;;;;;;23.25;14.50;;;21.40;87.90;;;;;;5014641;28;20492;-62
2021/08/31 02:50:58;;;;;;;18.30;11.80;;;21.40;87.80;;;;;;5003068;28;20029;-62
2021/08/31 02:53:24;;;;;;;16.92;12.27;;;21.40;87.70;;;;;;5015581;28;20409;-62
2021/08/31 02:55:50;;;;;;;16.35;11.52;;;21.30;87.80;;;;;;5015119;28;20114;-62
2021/08/31 02:58:15;;;;;;;17.50;11.68;;;21.30;87.90;;;;;;5010576;28;20076;-62
2021/08/31 03:00:53;;;;;;;16.58;11.30;;;21.20;87.90;;;;;;4996658;28;20037;-62
2021/08/31 03:03:19;;;;;;;16.48;11.00;;;21.20;87.50;;;;;;4996400;28;20038;-62
2021/08/31 03:05:44;;;;;;;19.73;12.30;;;21.10;87.50;;;;;;5013823;28;20026;-62
2021/08/31 03:08:10;;;;;;;16.13;11.57;;;21.10;87.80;;;;;;5007289;28;20069;-62
2021/08/31 03:10:36;;;;;;;13.82;10.65;;;21.10;87.60;;;;;;5005891;28;20446;-62
2021/08/31 03:13:02;;;;;;;16.27;11.13;;;21.10;87.60;;;;;;5013297;28;20097;-62
2021/08/31 03:15:28;;;;;;;17.02;11.20;;;21.10;88.20;;;;;;5015273;28;20029;-62
2021/08/31 03:17:53;;;;;;;15.07;10.73;;;21.10;87.60;;;;;;5015241;28;20037;-62
2021/08/31 03:20:20;;;;;;;15.68;11.88;;;21.00;87.50;;;;;;5009703;28;20029;-62
2021/08/31 03:22:46;;;;;;;12.50;9.40;;;21.00;87.40;;;;;;5015657;28;20026;-62
2021/08/31 03:25:12;;;;;;;14.00;9.93;;;20.90;88.10;;;;;;5015115;28;20350;-62
2021/08/31 03:27:37;;;;;;;18.02;13.63;;;20.90;87.70;;;;;;5014449;28;20037;-62
2021/08/31 03:30:06;;;;;;;16.70;12.18;;;20.90;87.60;;;;;;5014445;28;20073;-62
2021/08/31 03:32:32;;;;;;;14.25;10.52;;;20.80;87.50;;;;;;4998051;28;20092;-62
2021/08/31 03:34:58;;;;;;;17.27;11.48;;;20.80;87.70;;;;;;5035651;28;20065;-62
2021/08/31 03:37:23;;;;;;;15.10;10.68;;;20.80;87.70;;;;;;5027963;28;20030;-62
2021/08/31 03:39:49;;;;;;;15.25;11.45;;;20.80;87.90;;;;;;5015567;28;20025;-62
2021/08/31 03:42:15;;;;;;;15.23;10.68;;;20.80;87.90;;;;;;5014193;28;20440;-62
2021/08/31 03:44:40;;;;;;;16.52;11.88;;;20.80;87.90;;;;;;5014513;28;20026;-62
2021/08/31 03:47:06;;;;;;;16.20;11.43;;;20.70;87.60;;;;;;5013514;28;20026;-62
2021/08/31 03:49:32;;;;;;;14.65;11.07;;;20.70;87.60;;;;;;5005220;28;20364;-62
2021/08/31 03:51:57;;;;;;;13.82;10.02;;;20.70;87.70;;;;;;5014823;28;20030;-62
2021/08/31 03:54:23;;;;;;;13.68;10.07;;;20.70;88.00;;;;;;5014963;28;20476;-62
2021/08/31 03:56:48;;;;;;;13.25;9.50;;;20.60;87.80;;;;;;5014959;28;20030;-62
2021/08/31 03:59:14;;;;;;;15.07;9.95;;;20.60;88.10;;;;;;5014448;28;20130;-62
2021/08/31 04:01:40;;;;;;;12.48;9.40;;;20.50;88.00;;;;;;5013807;28;20105;-62
2021/08/31 04:04:05;;;;;;;14.75;9.70;;;20.50;88.20;;;;;;5013163;28;20449;-62
2021/08/31 04:06:31;;;;;;;13.63;10.35;;;20.50;88.20;;;;;;5013649;28;20061;-62
2021/08/31 04:08:56;;;;;;;13.38;9.25;;;20.50;88.30;;;;;;5013205;28;20038;-62
2021/08/31 04:11:22;;;;;;;15.05;10.00;;;20.40;88.30;;;;;;5014540;28;20064;-62
2021/08/31 04:13:48;;;;;;;13.95;9.38;;;20.40;88.60;;;;;;5017314;28;20025;-62
2021/08/31 04:16:13;;;;;;;13.38;10.35;;;20.40;88.60;;;;;;5013939;28;20466;-62
2021/08/31 04:18:39;;;;;;;14.25;9.48;;;20.40;88.60;;;;;;5012979;28;20030;-62
2021/08/31 04:21:05;;;;;;;14.15;10.90;;;20.40;88.70;;;;;;5014268;28;20034;-62
2021/08/31 04:23:30;;;;;;;14.05;10.27;;;20.40;88.90;;;;;;5013095;28;20458;-62
2021/08/31 04:25:56;;;;;;;13.20;9.98;;;20.30;88.70;;;;;;5014137;28;20022;-62
2021/08/31 04:28:21;;;;;;;16.92;10.50;;;20.40;88.80;;;;;;5004115;28;20026;-62
2021/08/31 04:30:47;;;;;;;13.93;10.30;;;20.40;89.10;;;;;;5013973;28;20022;-62
2021/08/31 04:33:13;;;;;;;16.17;11.90;;;20.40;88.80;;;;;;5020427;28;20079;-62
2021/08/31 04:35:39;;;;;;;14.77;10.85;;;20.40;88.60;;;;;;5018836;28;20042;-62
2021/08/31 04:38:04;;;;;;;15.02;11.77;;;20.40;88.70;;;;;;5012222;28;20041;-62
2021/08/31 04:40:30;;;;;;;15.00;12.00;;;20.40;88.60;;;;;;5012281;28;20076;-62
2021/08/31 04:42:56;;;;;;;16.20;12.55;;;20.40;88.70;;;;;;5013104;28;20022;-62
2021/08/31 04:45:22;;;;;;;13.27;11.00;;;20.40;88.60;;;;;;5014038;28;20033;-62
2021/08/31 04:47:47;;;;;;;18.15;12.88;;;20.50;88.60;;;;;;5013626;28;20030;-62
2021/08/31 04:50:13;;;;;;;13.90;10.75;;;20.50;88.60;;;;;;5001193;28;20031;-62
2021/08/31 04:52:39;;;;;;;14.50;10.77;;;20.40;88.30;;;;;;5010690;28;20084;-62
2021/08/31 04:55:05;;;;;;;14.20;10.93;;;20.40;88.20;;;;;;5012935;28;20097;-62
2021/08/31 04:57:30;;;;;;;16.38;11.43;;;20.40;88.30;;;;;;5012790;28;20046;-62
2021/08/31 04:59:56;;;;;;;14.73;10.80;;;20.40;88.30;;;;;;5010953;28;20087;-62
2021/08/31 05:02:22;;;;;;;16.70;12.40;;;20.40;88.30;;;;;;5009160;28;20027;-62
2021/08/31 05:04:48;;;;;;;12.43;9.73;;;20.40;88.20;;;;;;5009718;28;20056;-62
2021/08/31 05:07:13;;;;;;;14.50;10.30;;;20.40;88.30;;;;;;5011464;28;20430;-62
2021/08/31 05:09:42;;;;;;;14.88;10.70;;;20.40;88.20;;;;;;5012665;28;20026;-62
2021/08/31 05:12:08;;;;;;;13.25;10.35;;;20.40;88.10;;;;;;5013027;28;20747;-62
2021/08/31 05:14:34;;;;;;;11.60;8.80;;;20.50;88.00;;;;;;5012373;28;20056;-62
2021/08/31 05:17:00;;;;;;;12.68;9.85;;;20.40;88.00;;;;;;5012753;28;20034;-62
2021/08/31 05:19:26;;;;;;;11.63;9.98;;;20.40;88.00;;;;;;5011434;28;20088;-62
2021/08/31 05:21:52;;;;;;;11.43;9.38;;;20.50;87.90;;;;;;5007582;28;20343;-62
2021/08/31 05:24:18;;;;;;;13.90;9.55;;;20.50;87.90;;;;;;5009966;28;20035;-62
2021/08/31 05:26:43;;;;;;;11.40;9.50;;;20.50;87.80;;;;;;5007719;28;20029;-63
2021/08/31 05:29:09;;;;;;;12.02;9.02;;;20.50;87.90;;;;;;5003624;28;20029;-63
2021/08/31 05:31:34;;;;;;;11.50;8.82;;;20.50;88.00;;;;;;5010631;28;20076;-63
2021/08/31 05:34:00;;;;;;;12.25;9.23;;;20.60;88.30;;;;;;5009736;28;20034;-63
2021/08/31 05:36:27;;;;;;;11.82;9.07;;;20.70;88.50;;;;;;5007973;28;20195;-63
2021/08/31 05:38:53;;;;;;;12.77;8.75;;;20.80;88.40;;;;;;5006939;28;20384;-63
2021/08/31 05:41:19;;;;;;;10.82;9.25;;;21.00;87.80;;;;;;5002995;28;20385;-63
2021/08/31 05:43:44;;;;;;;12.80;9.00;;;21.10;87.60;;;;;;5003565;28;20034;-63
2021/08/31 05:46:10;;;;;;;11.13;8.07;;;21.20;87.00;;;;;;5006019;28;20102;-64
2021/08/31 05:48:36;;;;;;;10.45;8.65;;;21.30;86.50;;;;;;5004327;28;20085;-63
2021/08/31 05:51:02;;;;;;;10.40;8.35;;;21.40;86.00;;;;;;5004920;28;20067;-63
2021/08/31 05:53:28;;;;;;;10.07;7.93;;;21.50;85.40;;;;;;5004379;28;20025;-64
2021/08/31 05:55:54;;;;;;;11.55;7.82;;;21.60;85.30;;;;;;4993975;28;20033;-63
2021/08/31 05:58:20;;;;;;;10.38;8.77;;;21.70;85.20;;;;;;5000977;28;20034;-63
2021/08/31 06:00:45;;;;;;;10.25;7.97;;;21.90;84.80;;;;;;4999287;28;20520;-63
2021/08/31 06:03:11;;;;;;;10.07;7.95;;;22.00;84.40;;;;;;5003197;28;20363;-64
2021/08/31 06:05:38;;;;;;;8.88;7.28;;;22.10;83.50;;;;;;5002585;28;20022;-63
2021/08/31 06:08:04;;;;;;;10.38;7.38;;;22.30;82.90;;;;;;5002497;28;20084;-64
2021/08/31 06:10:29;;;;;;;10.77;7.10;;;22.40;82.30;;;;;;5011425;28;20025;-63
2021/08/31 06:12:56;;;;;;;9.90;8.30;;;22.50;81.70;;;;;;5006704;28;20037;-64
2021/08/31 06:15:22;;;;;;;9.52;8.45;;;22.60;81.30;;;;;;5010507;28;20034;-64
2021/08/31 06:17:48;;;;;;;8.75;7.30;;;22.70;80.70;;;;;;5008319;28;20616;-63
2021/08/31 06:20:13;;;;;;;8.38;7.07;;;22.70;80.30;;;;;;5003186;28;20537;-64
2021/08/31 06:22:39;;;;;;;8.57;7.25;;;22.80;80.00;;;;;;5003683;28;20477;-63
2021/08/31 06:25:06;;;;;;;9.13;8.15;;;22.90;79.80;;;;;;5008300;28;20026;-63
2021/08/31 06:27:32;;;;;;;7.95;7.07;;;23.00;79.70;;;;;;5000716;28;20030;-64
2021/08/31 06:29:57;;;;;;;10.32;8.00;;;23.00;79.20;;;;;;5005078;28;20030;-64
2021/08/31 06:32:23;;;;;;;11.18;9.15;;;23.20;79.00;;;;;;5003971;28;20890;-64
2021/08/31 06:34:49;;;;;;;11.07;9.77;;;23.30;78.50;;;;;;5003478;28;20022;-63
2021/08/31 06:37:14;;;;;;;11.73;9.75;;;23.30;78.00;;;;;;5003478;28;20793;-64
2021/08/31 06:39:40;;;;;;;10.90;9.15;;;23.30;77.80;;;;;;5005051;28;20029;-64
2021/08/31 06:42:05;;;;;;;11.88;10.05;;;23.30;77.80;;;;;;5001783;28;20025;-64
2021/08/31 06:44:31;;;;;;;12.57;10.57;;;23.40;77.70;;;;;;5003961;28;20041;-64
2021/08/31 06:46:57;;;;;;;11.32;9.93;;;23.40;77.40;;;;;;5000873;28;20369;-63
2021/08/31 06:49:23;;;;;;;14.40;11.68;;;23.50;77.30;;;;;;5006280;28;20021;-64
2021/08/31 06:51:48;;;;;;;12.45;10.70;;;23.50;76.80;;;;;;5004857;28;20034;-63
2021/08/31 06:54:14;;;;;;;12.93;9.85;;;23.50;76.60;;;;;;5007089;28;20097;-64
2021/08/31 06:56:40;;;;;;;11.85;9.70;;;23.50;76.30;;;;;;5000098;28;20034;-64
2021/08/31 06:59:06;;;;;;;10.50;9.02;;;23.40;76.10;;;;;;5000483;28;20036;-64
2021/08/31 07:01:34;;;;;;;10.65;7.93;;;23.40;76.00;;;;;;4980321;28;20149;-63
2021/08/31 07:03:59;;;;;;;11.05;8.52;;;23.40;76.10;;;;;;4998262;28;21707;-63
2021/08/31 07:06:25;;;;;;;10.15;8.40;;;23.40;76.40;;;;;;4998296;28;20030;-64
2021/08/31 07:08:52;;;;;;;8.77;7.25;;;23.50;76.00;;;;;;4999241;28;20038;-64
2021/08/31 07:11:17;;;;;;;8.95;7.35;;;23.50;76.00;;;;;;4995019;28;20033;-63
2021/08/31 07:13:43;;;;;;;7.85;7.03;;;23.60;75.40;;;;;;4996585;28;20041;-64
2021/08/31 07:16:09;;;;;;;7.80;6.25;;;23.60;75.10;;;;;;4993887;28;20030;-64
2021/08/31 07:18:35;;;;;;;8.93;7.43;;;23.60;75.00;;;;;;4995803;28;20041;-64
2021/08/31 07:21:00;;;;;;;7.80;6.63;;;23.60;74.90;;;;;;4996795;28;20570;-64
2021/08/31 07:23:26;;;;;;;8.18;7.25;;;23.60;74.70;;;;;;5000045;28;20042;-64
2021/08/31 07:25:51;;;;;;;10.82;6.80;;;23.60;74.60;;;;;;4996870;28;20382;-64
2021/08/31 07:28:17;;;;;;;9.20;6.82;;;23.70;74.50;;;;;;4997983;28;22065;-64
2021/08/31 07:30:43;;;;;;;6.75;6.05;;;23.70;74.50;;;;;;4997284;28;20029;-64
2021/08/31 07:33:10;;;;;;;7.22;6.25;;;23.80;74.10;;;;;;5011743;28;20057;-63
2021/08/31 07:35:37;;;;;;;6.00;5.38;;;23.80;73.90;;;;;;4993483;28;20034;-63
2021/08/31 07:38:04;;;;;;;6.50;5.65;;;23.90;73.70;;;;;;4991320;28;20030;-62
2021/08/31 07:40:30;;;;;;;6.70;5.53;;;23.90;73.40;;;;;;4992446;28;20088;-63
2021/08/31 07:42:56;;;;;;;5.75;5.05;;;23.90;73.00;;;;;;4994331;28;20062;-63
2021/08/31 07:45:22;;;;;;;4.95;4.40;;;24.00;72.80;;;;;;4989214;28;20110;-63
2021/08/31 07:47:50;;;;;;;5.53;4.93;;;24.00;72.50;;;;;;4994822;28;20101;-63
2021/08/31 07:50:15;;;;;;;6.00;4.65;;;24.10;72.40;;;;;;4994918;28;20022;-63
2021/08/31 07:52:41;;;;;;;5.10;4.30;;;24.10;71.80;;;;;;4996677;28;20505;-63
2021/08/31 07:55:10;;;;;;;4.93;4.38;;;24.10;71.50;;;;;;4996832;28;20026;-63
2021/08/31 07:57:36;;;;;;;5.53;4.57;;;24.10;71.20;;;;;;4991598;28;20034;-63
2021/08/31 08:00:04;;;;;;;5.50;4.25;;;24.10;71.10;;;;;;4993298;28;20047;-63
2021/08/31 08:02:33;;;;;;;5.10;4.38;;;24.20;71.20;;;;;;4999659;28;20040;-63
2021/08/31 08:04:59;;;;;;;5.22;4.07;;;24.20;71.00;;;;;;4993926;28;20037;-63
2021/08/31 08:07:26;;;;;;;4.63;3.88;;;24.20;70.70;;;;;;4997247;28;20596;-63
2021/08/31 08:09:52;;;;;;;5.07;4.00;;;24.30;70.30;;;;;;4995027;28;20033;-63
2021/08/31 08:12:18;;;;;;;4.30;3.63;;;24.30;70.10;;;;;;5000466;28;20895;-63
2021/08/31 08:14:44;;;;;;;4.57;3.47;;;24.30;69.70;;;;;;4998150;28;20034;-63
2021/08/31 08:17:10;;;;;;;5.70;4.15;;;24.30;69.60;;;;;;4996931;28;20123;-63
2021/08/31 08:19:36;;;;;;;3.75;3.35;;;24.30;69.40;;;;;;4992711;28;20044;-63
2021/08/31 08:22:01;;;;;;;4.35;3.55;;;24.30;68.80;;;;;;4996604;28;20046;-63
2021/08/31 08:24:27;;;;;;;3.97;3.58;;;24.30;68.50;;;;;;4991622;28;20030;-63
2021/08/31 08:26:55;;;;;;;4.13;3.42;;;24.30;68.50;;;;;;4993498;28;20026;-63
2021/08/31 08:29:20;;;;;;;3.47;3.13;;;24.20;68.40;;;;;;4996231;28;20062;-63
2021/08/31 08:31:47;;;;;;;3.83;3.10;;;24.20;68.30;;;;;;4998397;28;20133;-63
2021/08/31 08:34:13;;;;;;;3.63;3.05;;;24.20;67.90;;;;;;4992649;28;20405;-63
2021/08/31 08:36:39;;;;;;;4.13;3.47;;;24.20;67.50;;;;;;4991810;28;20033;-63
2021/08/31 08:39:05;;;;;;;4.20;3.30;;;24.10;67.60;;;;;;4989399;28;20049;-63
2021/08/31 08:41:30;;;;;;;3.45;3.00;;;24.10;67.30;;;;;;4989400;28;20038;-63
2021/08/31 08:43:59;;;;;;;4.18;3.05;;;24.10;67.70;;;;;;4994990;28;20034;-63
2021/08/31 08:46:25;;;;;;;4.20;3.13;;;24.10;67.60;;;;;;4992976;28;20080;-63
2021/08/31 08:48:51;;;;;;;4.38;3.28;;;24.10;66.70;;;;;;4995183;28;20037;-63
2021/08/31 08:51:19;;;;;;;3.58;2.88;;;24.10;66.30;;;;;;4992871;28;20030;-63
2021/08/31 08:53:45;;;;;;;3.63;2.80;;;24.10;66.90;;;;;;4990339;28;20038;-63
2021/08/31 08:56:11;;;;;;;3.78;2.90;;;24.10;66.70;;;;;;4981946;28;20030;-63
2021/08/31 08:58:37;;;;;;;3.65;3.10;;;24.10;66.50;;;;;;4978699;28;20038;-63
2021/08/31 09:01:08;;;;;;;4.38;2.90;;;24.20;66.80;;;;;;4988588;28;20060;-63
2021/08/31 09:03:39;;;;;;;3.20;2.90;;;24.20;66.90;;;;;;4988342;28;20133;-63
2021/08/31 09:06:11;;;;;;;4.00;2.90;;;24.20;66.80;;;;;;4993252;28;20026;-63
2021/08/31 09:08:43;;;;;;;3.30;3.00;;;24.20;66.60;;;;;;4992297;28;20080;-63
2021/08/31 09:11:37;;;;;;;3.55;2.97;;;24.20;66.60;;;;;;5000933;28;20030;-63
2021/08/31 09:14:25;;;;;;;3.40;2.72;;;24.20;66.40;;;;;;5000637;28;20042;-63
2021/08/31 09:16:53;;;;;;;3.13;2.58;;;24.20;66.50;;;;;;4995764;28;20036;-63
2021/08/31 09:19:31;;;;;;;3.33;2.33;;;24.20;66.60;;;;;;4994605;28;20044;-63
2021/08/31 09:22:18;;;;;;;4.28;2.78;;;24.20;66.50;;;;;;4988002;28;20379;-62
2021/08/31 09:25:04;;;;;;;5.95;2.70;;;24.30;66.40;;;;;;4992005;28;20084;-62
2021/08/31 09:27:37;;;;;;;3.13;2.70;;;24.30;66.50;;;;;;4993838;28;20537;-63
2021/08/31 09:30:22;;;;;;;4.68;2.70;;;24.30;66.50;;;;;;4992137;28;20033;-63
2021/08/31 09:32:59;;;;;;;2.72;2.35;;;24.30;66.70;;;;;;4996009;28;20042;-63
2021/08/31 09:35:30;;;;;;;2.33;2.13;;;24.30;66.60;;;;;;4994301;28;20034;-63
2021/08/31 09:37:57;;;;;;;;;;;24.30;66.50;;;;;;4989530;28;20477;-63
2021/08/31 09:40:27;;;;;;;2.95;2.20;;;24.30;66.70;;;;;;4992750;28;19913;-63
2021/08/31 09:43:05;;;;;;;3.22;2.40;;;24.40;66.70;;;;;;4994816;28;20093;-62
2021/08/31 09:45:34;;;;;;;2.65;2.40;;;24.40;66.40;;;;;;4996897;28;20194;-62
2021/08/31 09:48:02;;;;;;;3.03;2.45;;;24.40;66.20;;;;;;5001303;28;20026;-63
2021/08/31 09:50:43;;;;;;;2.80;2.38;;;24.50;66.10;;;;;;4997279;28;20148;-63
2021/08/31 09:53:17;;;;;;;;;;;24.50;65.80;;;;;;4994216;28;20036;-63
2021/08/31 09:55:48;;;;;;;2.33;2.13;;;24.50;66.30;;;;;;4991631;28;19924;-62
2021/08/31 09:58:23;;;;;;;2.30;2.10;;;24.50;66.30;;;;;;4999133;28;20036;-63
2021/08/31 10:00:51;;;;;;;2.83;2.50;;;24.50;66.00;;;;;;4998104;28;20116;-63
2021/08/31 10:03:17;;;;;;;2.70;2.38;;;24.50;65.80;;;;;;4998648;28;20124;-63
2021/08/31 10:05:44;;;;;;;3.00;2.40;;;24.50;65.90;;;;;;5001339;28;20022;-63
2021/08/31 10:08:11;;;;;;;3.25;2.40;;;24.50;65.80;;;;;;4998841;28;20863;-63
2021/08/31 10:10:38;;;;;;;3.35;2.70;;;24.60;65.80;;;;;;4998312;28;20044;-63
2021/08/31 10:13:12;;;;;;;3.03;2.72;;;24.60;65.80;;;;;;4999822;28;20088;-63
2021/08/31 10:15:41;;;;;;;3.75;2.40;;;24.60;65.60;;;;;;4999223;28;20025;-62
2021/08/31 10:18:08;;;;;;;3.17;2.70;;;24.60;65.40;;;;;;5002466;28;20034;-62
2021/08/31 10:20:40;;;;;;;3.17;2.80;;;24.60;65.40;;;;;;4997221;28;20048;-63
2021/08/31 10:23:07;;;;;;;2.85;2.53;;;24.60;65.30;;;;;;4997333;28;20049;-62
2021/08/31 10:25:33;;;;;;;2.90;2.60;;;24.70;65.00;;;;;;4994769;28;20377;-62
2021/08/31 10:28:00;;;;;;;2.63;2.42;;;24.70;65.10;;;;;;4997851;28;20026;-62
2021/08/31 10:30:27;;;;;;;2.72;2.47;;;24.70;65.00;;;;;;4998705;28;20062;-63
2021/08/31 10:32:57;;;;;;;2.90;2.60;;;24.70;65.00;;;;;;4977381;28;20049;-63
2021/08/31 10:35:50;;;;;;;2.65;2.35;;;24.70;64.60;;;;;;4991326;28;20022;-63
2021/08/31 10:38:16;;;;;;;3.55;2.85;;;24.70;64.60;;;;;;4992255;28;20105;-63
2021/08/31 10:40:45;;;;;;;2.42;2.22;;;24.70;64.50;;;;;;4994117;28;23683;-63
2021/08/31 10:43:19;;;;;;;2.83;2.50;;;24.70;64.50;;;;;;5001088;28;20137;-63
2021/08/31 10:45:53;;;;;;;2.50;2.30;;;24.80;64.10;;;;;;5001899;28;20084;-63
2021/08/31 10:48:22;;;;;;;2.60;2.25;;;24.80;64.30;;;;;;5006559;28;20037;-63
2021/08/31 10:50:49;;;;;;;2.75;2.55;;;24.80;64.30;;;;;;5001285;28;20089;-63
2021/08/31 10:53:38;;;;;;;3.22;2.65;;;24.80;64.20;;;;;;4995144;28;20041;-63
2021/08/31 10:56:22;;;;;;;2.45;2.25;;;24.80;64.20;;;;;;4999578;28;20061;-63
2021/08/31 10:59:04;;;;;;;2.65;2.33;;;24.80;64.30;;;;;;5001837;28;20045;-63
2021/08/31 11:01:41;;;;;;;3.40;2.30;;;24.80;64.00;;;;;;5000692;28;20068;-61
2021/08/31 11:04:34;;;;;;;2.58;2.38;;;24.80;64.10;;;;;;4997740;28;20689;-62
2021/08/31 11:07:04;;;;;;;2.83;2.40;;;24.80;63.90;;;;;;5000023;28;20145;-61
2021/08/31 11:09:30;;;;;;;2.90;2.55;;;24.80;63.90;;;;;;5001247;28;20117;-61
2021/08/31 11:12:02;;;;;;;2.90;2.38;;;24.90;63.90;;;;;;5004376;28;20474;-61
2021/08/31 11:14:46;;;;;;;2.72;2.40;;;24.90;64.10;;;;;;5013911;28;20120;-60
2021/08/31 11:17:34;;;;;;;2.60;2.13;;;24.90;63.90;;;;;;5001310;28;20061;-61
2021/08/31 11:20:12;;;;;;;2.85;2.60;;;24.90;63.80;;;;;;5006761;28;20057;-61
2021/08/31 11:22:37;;;;;;;2.67;2.42;;;24.90;63.60;;;;;;4997923;28;20037;-61
2021/08/31 11:25:03;;;;;;;3.67;2.80;;;24.90;63.30;;;;;;4999450;28;20095;-62
2021/08/31 11:27:29;;;;;;;2.70;2.47;;;24.90;63.30;;;;;;5001190;28;20516;-61
2021/08/31 11:29:57;;;;;;;2.58;2.38;;;24.90;63.30;;;;;;4986210;28;20194;-62
2021/08/31 11:32:22;;;;;;;2.92;2.60;;;24.90;63.30;;;;;;4973275;28;20120;-62
2021/08/31 11:35:02;;;;;;;3.40;2.80;;;24.90;63.30;;;;;;4994186;28;20504;-60
2021/08/31 11:37:28;;;;;;;2.70;2.50;;;25.00;63.30;;;;;;4995175;28;20034;-62
2021/08/31 11:39:58;;;;;;;2.72;2.53;;;25.00;62.90;;;;;;4996989;28;20036;-62
2021/08/31 11:42:24;;;;;;;2.70;2.40;;;25.00;62.70;;;;;;4997651;28;20108;-61
2021/08/31 11:44:57;;;;;;;3.63;2.80;;;25.00;62.60;;;;;;5000192;28;20129;-62
2021/08/31 11:47:23;;;;;;;3.58;2.70;;;25.00;62.00;;;;;;4994436;28;20026;-62
2021/08/31 11:49:49;;;;;;;3.22;2.72;;;25.00;62.10;;;;;;5002356;28;20029;-62
2021/08/31 11:52:18;;;;;;;3.38;2.45;;;25.00;62.30;;;;;;4995680;28;20032;-62
2021/08/31 11:54:55;;;;;;;3.00;2.70;;;25.00;62.10;;;;;;4991306;28;20501;-63
2021/08/31 11:57:27;;;;;;;2.72;2.53;;;25.00;62.20;;;;;;4986481;28;20758;-62
2021/08/31 11:59:53;;;;;;;2.72;2.50;;;25.10;62.00;;;;;;4982982;28;20651;-61
2021/08/31 12:02:23;;;;;;;2.80;2.50;;;25.10;61.70;;;;;;4989233;28;20089;-62
2021/08/31 12:04:57;;;;;;;2.80;2.60;;;25.10;61.50;;;;;;5005047;28;20468;-61
2021/08/31 12:07:43;;;;;;;3.00;2.40;;;25.10;61.60;;;;;;4998804;28;20464;-62
2021/08/31 12:10:18;;;;;;;2.60;2.40;;;25.10;61.10;;;;;;4994220;28;20117;-60
2021/08/31 12:12:44;;;;;;;2.58;2.38;;;25.10;60.60;;;;;;4996223;28;20029;-62
2021/08/31 12:15:11;;;;;;;2.83;2.45;;;25.10;61.00;;;;;;4997799;28;20049;-62
2021/08/31 12:17:43;;;;;;;2.88;2.50;;;25.10;61.20;;;;;;4998565;28;20068;-62
2021/08/31 12:20:14;;;;;;;2.60;2.40;;;25.10;61.20;;;;;;4998994;28;20104;-62
2021/08/31 12:22:47;;;;;;;5.40;2.85;;;25.20;61.80;;;;;;4979029;28;20123;-61
2021/08/31 12:25:15;;;;;;;3.05;2.53;;;25.20;60.90;;;;;;4993411;28;20037;-62
2021/08/31 12:27:44;;;;;;;2.92;2.30;;;25.20;60.80;;;;;;4999171;28;20734;-62
2021/08/31 12:30:12;;;;;;;3.03;2.75;;;25.30;61.10;;;;;;4994666;28;20032;-61
2021/08/31 12:32:39;;;;;;;3.33;2.92;;;25.30;61.00;;;;;;4998051;28;20094;-63
2021/08/31 12:35:25;;;;;;;3.97;2.70;;;25.30;61.10;;;;;;4990634;28;20026;-62
2021/08/31 12:38:08;;;;;;;2.90;2.50;;;25.40;61.40;;;;;;4990962;28;20022;-63
2021/08/31 12:40:37;;;;;;;2.47;2.28;;;25.40;61.20;;;;;;4996176;28;20052;-62